createdAt,value
2023-02-06T00:01:47.723Z,26.30
2023-02-06T00:07:09.434Z,25.40
2023-02-06T00:12:31.122Z,26.67
2023-02-06T00:17:52.789Z,27.23
2023-02-06T00:23:14.581Z,26.63
2023-02-06T00:28:36.293Z,28.17
2023-02-06T00:33:57.995Z,27.07
2023-02-06T00:39:19.751Z,29.07
2023-02-06T00:44:41.451Z,27.73
2023-02-06T00:50:04.429Z,28.17
2023-02-06T00:55:26.260Z,28.67
2023-02-06T01:00:47.932Z,28.10
2023-02-06T01:06:09.782Z,29.97
2023-02-06T01:11:31.531Z,28.33
2023-02-06T01:16:53.291Z,29.67
2023-02-06T01:22:14.967Z,30.40
2023-02-06T01:27:37.967Z,29.43
2023-02-06T01:32:59.694Z,30.03
2023-02-06T01:38:21.385Z,31.57
2023-02-06T01:43:46.293Z,31.20
2023-02-06T01:49:11.946Z,29.60
2023-02-06T01:54:34.148Z,30.97
2023-02-06T02:00:01.333Z,29.30
2023-02-06T02:05:23.329Z,29.50
2023-02-06T02:10:45.614Z,31.87
2023-02-06T02:16:19.647Z,29.07
2023-02-06T02:22:06.435Z,30.33
2023-02-06T02:27:34.229Z,30.10
2023-02-06T02:33:05.022Z,31.30
2023-02-06T02:38:53.719Z,30.57
2023-02-06T02:44:26.205Z,30.50
2023-02-06T02:49:48.933Z,29.93
2023-02-06T02:55:21.417Z,30.80
2023-02-06T03:00:51.102Z,29.33
2023-02-06T03:06:31.011Z,31.27
2023-02-06T03:12:11.673Z,30.70
2023-02-06T03:17:39.232Z,29.73
2023-02-06T03:23:03.886Z,29.97
2023-02-06T03:28:31.437Z,31.00
2023-02-06T03:34:03.860Z,30.70
2023-02-06T03:39:26.250Z,31.80
2023-02-06T03:44:54.682Z,30.53
2023-02-06T03:50:17.414Z,28.83
2023-02-06T03:55:41.068Z,29.70
2023-02-06T04:01:05.462Z,30.30
2023-02-06T04:06:27.358Z,29.67
2023-02-06T04:11:49.234Z,29.73
2023-02-06T04:17:11.644Z,30.53
2023-02-06T04:22:33.409Z,29.53
2023-02-06T04:27:55.338Z,28.73
2023-02-06T04:33:17.044Z,31.17
2023-02-06T04:38:38.730Z,30.03
2023-02-06T04:44:00.416Z,30.47
2023-02-06T04:49:22.262Z,33.23
2023-02-06T04:54:43.954Z,29.90
2023-02-06T05:00:06.713Z,30.33
2023-02-06T05:05:28.519Z,28.40
2023-02-06T05:10:52.102Z,28.50
2023-02-06T05:16:16.077Z,29.93
2023-02-06T05:21:37.926Z,29.33
2023-02-06T05:26:59.638Z,28.97
2023-02-06T05:32:21.365Z,28.53
2023-02-06T05:37:43.251Z,30.00
2023-02-06T05:43:05.531Z,29.83
2023-02-06T05:48:28.988Z,29.10
2023-02-06T05:53:50.656Z,27.83
2023-02-06T05:59:12.579Z,28.00
2023-02-06T06:04:34.451Z,28.00
2023-02-06T06:09:48.193Z,28.03
2023-02-06T06:15:10.193Z,27.77
2023-02-06T06:20:31.918Z,26.63
2023-02-06T06:25:53.609Z,27.63
2023-02-06T06:31:15.611Z,27.43
2023-02-06T06:36:37.527Z,25.60
2023-02-06T06:41:59.209Z,25.37
2023-02-06T06:47:20.878Z,24.30
2023-02-06T06:52:45.329Z,26.07
2023-02-06T06:58:07.050Z,24.90
2023-02-06T07:03:35.581Z,23.27
2023-02-06T07:08:57.295Z,23.43
2023-02-06T07:14:19.167Z,22.40
2023-02-06T07:19:40.941Z,22.17
2023-02-06T07:25:02.700Z,21.57
2023-02-06T07:30:24.674Z,22.07
2023-02-06T07:35:49.010Z,20.97
2023-02-06T07:41:12.684Z,21.40
2023-02-06T07:46:34.629Z,21.43
2023-02-06T07:51:56.347Z,18.97
2023-02-06T07:57:18.916Z,19.07
2023-02-06T08:02:40.883Z,18.57
2023-02-06T08:08:02.640Z,17.87
2023-02-06T08:13:24.353Z,16.57
2023-02-06T08:18:46.934Z,15.27
2023-02-06T08:24:11.363Z,15.23
2023-02-06T08:29:40.307Z,16.53
2023-02-06T08:35:02.158Z,15.57
2023-02-06T08:40:23.938Z,14.30
2023-02-06T08:45:51.567Z,13.90
2023-02-06T08:51:14.413Z,10.50
2023-02-06T08:56:37.645Z,12.40
2023-02-06T09:01:59.343Z,11.80
2023-02-06T09:07:21.753Z,11.53
2023-02-06T09:12:43.412Z,12.10
2023-02-06T09:18:05.108Z,11.30
2023-02-06T09:23:26.821Z,12.10
2023-02-06T09:28:52.877Z,11.77
2023-02-06T09:34:14.707Z,9.53
2023-02-06T09:39:36.412Z,10.20
2023-02-06T09:45:18.167Z,11.03
2023-02-06T09:51:10.650Z,10.13
2023-02-06T09:57:05.022Z,9.00
2023-02-06T10:02:51.470Z,8.43
2023-02-06T10:08:25.343Z,6.90
2023-02-06T10:13:55.232Z,8.60
2023-02-06T10:19:23.272Z,6.77
2023-02-06T10:24:57.397Z,8.47
2023-02-06T10:30:25.240Z,6.67
2023-02-06T10:36:07.204Z,5.93
2023-02-06T10:41:43.452Z,6.80
2023-02-06T10:47:18.047Z,4.70
2023-02-06T10:52:40.078Z,4.70
2023-02-06T10:58:16.990Z,4.70
2023-02-06T11:03:47.308Z,4.47
2023-02-06T11:09:10.150Z,4.87
2023-02-06T11:14:38.259Z,4.20
2023-02-06T11:20:14.710Z,4.40
2023-02-06T11:25:36.847Z,4.40
2023-02-06T11:31:01.746Z,4.43
2023-02-06T11:36:38.385Z,4.47
2023-02-06T11:42:03.512Z,4.93
2023-02-06T11:47:35.050Z,4.40
2023-02-06T11:53:10.512Z,5.00
2023-02-06T11:58:32.968Z,4.97
2023-02-06T12:03:59.326Z,5.40
2023-02-06T12:09:21.076Z,5.70
2023-02-06T12:14:51.658Z,5.10
2023-02-06T12:20:20.509Z,5.80
2023-02-06T12:25:45.859Z,6.17
2023-02-06T12:31:13.917Z,6.10
2023-02-06T12:36:50.825Z,6.13
2023-02-06T12:42:33.925Z,6.07
2023-02-06T12:48:12.222Z,7.00
2023-02-06T12:53:39.870Z,6.43
2023-02-06T12:59:10.565Z,7.03
2023-02-06T13:04:35.581Z,6.97
2023-02-06T13:10:02.656Z,6.23
2023-02-06T13:15:27.399Z,5.73
2023-02-06T13:21:13.823Z,5.20
2023-02-06T13:26:55.307Z,4.90
2023-02-06T13:32:17.041Z,5.43
2023-02-06T13:37:44.353Z,5.77
2023-02-06T13:43:26.364Z,5.27
2023-02-06T13:49:26.930Z,3.57
2023-02-06T13:55:17.848Z,3.87
2023-02-06T14:00:43.373Z,4.37
2023-02-06T14:06:07.811Z,3.90
2023-02-06T14:11:35.529Z,3.70
2023-02-06T14:17:18.819Z,4.20
2023-02-06T14:23:12.956Z,3.90
2023-02-06T14:28:56.152Z,4.07
2023-02-06T14:35:19.552Z,2.93
2023-02-06T14:40:43.135Z,3.37
2023-02-06T14:46:10.305Z,3.67
2023-02-06T14:51:36.649Z,3.80
2023-02-06T14:57:01.628Z,3.87
2023-02-06T15:02:35.321Z,4.37
2023-02-06T15:08:02.293Z,4.97
2023-02-06T15:13:34.560Z,4.73
2023-02-06T15:19:16.811Z,5.90
2023-02-06T15:24:58.972Z,5.13
2023-02-06T15:30:25.105Z,4.90
2023-02-06T15:35:53.117Z,5.07
2023-02-06T15:41:15.209Z,4.63
2023-02-06T15:46:38.058Z,5.23
2023-02-06T15:52:00.130Z,3.37
2023-02-06T15:57:32.899Z,3.80
2023-02-06T16:02:59.132Z,3.57
2023-02-06T16:08:34.830Z,4.03
2023-02-06T16:13:57.506Z,4.00
2023-02-06T16:19:38.109Z,3.70
2023-02-06T16:25:32.698Z,3.73
2023-02-06T16:31:04.449Z,3.67
2023-02-06T16:36:26.214Z,6.73
2023-02-06T16:41:53.082Z,4.60
2023-02-06T16:47:18.359Z,4.07
2023-02-06T16:52:49.027Z,4.27
2023-02-06T16:58:17.964Z,3.73
2023-02-06T17:03:39.713Z,3.87
2023-02-06T17:09:06.449Z,3.80
2023-02-06T17:14:28.150Z,3.53
2023-02-06T17:19:51.754Z,4.03
2023-02-06T17:25:13.728Z,4.07
2023-02-06T17:30:37.120Z,3.30
2023-02-06T17:35:59.231Z,3.50
2023-02-06T17:41:20.956Z,3.03
2023-02-06T17:46:42.689Z,3.70
2023-02-06T17:52:04.675Z,3.50
2023-02-06T17:57:26.534Z,3.30
2023-02-06T18:02:49.377Z,3.30
2023-02-06T18:08:11.710Z,3.07
2023-02-06T18:13:33.773Z,2.83
2023-02-06T18:18:55.619Z,2.80
2023-02-06T18:24:17.446Z,3.20
2023-02-06T18:29:49.378Z,4.00
2023-02-06T18:35:12.019Z,3.30
2023-02-06T18:40:33.718Z,3.40
2023-02-06T18:45:55.632Z,3.20
2023-02-06T18:51:17.383Z,3.87
2023-02-06T18:56:39.245Z,3.87
2023-02-06T19:02:01.439Z,4.27
2023-02-06T19:07:23.212Z,4.80
2023-02-06T19:12:45.762Z,5.13
2023-02-06T19:18:10.320Z,4.97
2023-02-06T19:23:34.699Z,5.60
2023-02-06T19:28:57.496Z,5.40
2023-02-06T19:34:19.306Z,5.07
2023-02-06T19:39:43.085Z,5.13
2023-02-06T19:45:06.829Z,5.33
2023-02-06T19:50:28.739Z,5.17
2023-02-06T19:55:50.791Z,4.57
2023-02-06T20:01:14.988Z,4.70
2023-02-06T20:06:37.252Z,5.67
2023-02-06T20:11:59.024Z,5.03
2023-02-06T20:17:21.598Z,5.80
2023-02-06T20:22:43.369Z,5.50
2023-02-06T20:28:05.266Z,5.87
2023-02-06T20:33:27.497Z,6.50
2023-02-06T20:38:54.473Z,5.83
2023-02-06T20:44:17.583Z,6.00
2023-02-06T20:49:39.429Z,6.03
2023-02-06T20:55:01.382Z,5.47
2023-02-06T21:00:23.176Z,6.27
2023-02-06T21:05:45.531Z,6.50
2023-02-06T21:11:08.154Z,6.47
2023-02-06T21:16:31.123Z,6.67
2023-02-06T21:21:52.937Z,6.37
2023-02-06T21:27:14.687Z,7.00
2023-02-06T21:32:36.390Z,6.60
2023-02-06T21:37:58.235Z,6.20
2023-02-06T21:43:20.235Z,6.60
2023-02-06T21:48:42.034Z,6.20
2023-02-06T21:54:04.104Z,6.13
2023-02-06T21:59:25.839Z,5.77
2023-02-06T22:04:47.520Z,5.90
2023-02-06T22:10:09.817Z,6.27
2023-02-06T22:15:32.480Z,6.43
2023-02-06T22:21:07.121Z,6.00
2023-02-06T22:26:30.180Z,5.60
2023-02-06T22:31:51.861Z,6.30
2023-02-06T22:37:13.558Z,7.20
2023-02-06T22:42:35.258Z,6.50
2023-02-06T22:47:56.941Z,6.93
2023-02-06T22:53:29.186Z,6.37
2023-02-06T22:58:51.102Z,6.60
2023-02-06T23:04:19.301Z,6.90
2023-02-06T23:09:41.083Z,7.00
2023-02-06T23:15:02.886Z,7.17
2023-02-06T23:20:24.578Z,9.50
2023-02-06T23:25:46.477Z,7.43
2023-02-06T23:31:09.602Z,6.90
2023-02-06T23:36:31.352Z,7.33
2023-02-06T23:41:53.100Z,7.60
2023-02-06T23:47:14.797Z,8.13
2023-02-06T23:52:36.501Z,7.50
2023-02-06T23:57:58.170Z,7.30
